RJBB Airport Information

Runway Information
Runway 06L Length 13123 ft width 196 ft
Elevation 24 ft Threshold 0 ft Heading 51
Runway 24R Length 13123 ft Width 196 ft
Elevation 32 ft Threshold 0 ft Heading 231
Runway 06R Length 11483 ft width 196 ft
Elevation 6 ft Threshold 0 ft Heading 51
Runway 24L Length 11483 ft Width 196 ft
Elevation 15 ft Threshold 0 ft Heading 231
Airport Frequencies
Type APP Name APP Frequency 120.25 MHZ
Type ATIS Name ATIS Frequency 127.85 MHZ
Type CLD Name CLNC DEL Frequency 121.9 MHZ
Type DEP Name DEP Frequency 119.2 MHZ
Type GND Name GND Frequency 121.6 MHZ
Type TCA Name TCA Frequency 121.1 MHZ
Type TWR Name TWR Frequency 118.2 MHZ
Airport Navaids
Type NDB Name Kansai Frequency 346 KHZ
Type VOR-DME Name Kansai Frequency 111800 KHZ
Type VOR-DME Name Shigi Frequency 111600 KHZ
Type VOR-DME Name Shinoda Frequency 112300 KHZ
Type VOR-DME Name Tomo Frequency 116400 KHZ
Airport Weather Information & NOTAM
ADDS - METARS form results

(1629 UTC 07 December 2019)
Data provider http://aviationweather.gov/metar/data/
 
METAR text: RJBB 071600Z AUTO 31012KT 9999 FEW050 09/03 Q1023 BECMG 34012KT
Conditions at: RJBB (KANSAI INTL , JP) observed 1600 UTC 07 December 2019
Temperature: 9.0°C (48°F)
Dewpoint: 3.0°C (37°F) [RH = 66%]
Pressure (altimeter): 30.21 inches Hg (1023.0 mb)
Winds: from the NW (310 degrees) at 14 MPH (12 knots; 6.2 m/s)
Visibility: 6 or more miles (10+ km)
Ceiling: at least 12,000 feet AGL
Clouds: few clouds at 5000 feet AGL
Weather: no significant weather observed at this time

METAR text: RJBB 071530Z AUTO 31013KT 9999 NCD 09/03 Q1023 BECMG 34014KT
Conditions at: RJBB (KANSAI INTL , JP) observed 1530 UTC 07 December 2019
Temperature: 9.0°C (48°F)
Dewpoint: 3.0°C (37°F) [RH = 66%]
Pressure (altimeter): 30.21 inches Hg (1023.0 mb)
Winds: from the NW (310 degrees) at 15 MPH (13 knots; 6.7 m/s)
Visibility: 6 or more miles (10+ km)
Ceiling: at least 12,000 feet AGL
Clouds: sky clear below 12,000 feet AGL
Weather: no significant weather observed at this time

Forecast for: RJBB (KANSAI INTL , JP)
Text: TAF RJBB 071105Z 0712/0818 35015KT 9999 FEW025 SCT050
Forecast period: 1200 UTC 07 December 2019 to 0900 UTC 08 December 2019
Forecast type: FROM: standard forecast or significant change
Winds: from the N (350 degrees) at 17 MPH (15 knots; 7.7 m/s)
Visibility: 6 or more miles 10+ km)
Ceiling: at least 12,000 feet AGL
Clouds: few clouds at 2500 feet AGL
scattered clouds at 5000 feet AGL
Weather: no significant weather forecast for this period
Text: BECMG 0809/0812 07010KT
Forecast period: 0900 to 1800 UTC 08 December 2019
Forecast type: BECOMING: Conditions expected to become as follows by 1200 UTC 08 December 2019
Winds: from the ENE (70 degrees) at 12 MPH (10 knots; 5.1 m/s)
Visibility: 6 or more miles 10+ km)
Ceiling: at least 12,000 feet AGL
Clouds: few clouds at 2500 feet AGL
scattered clouds at 5000 feet AGL
Weather: no significant weather forecast for this period